Login to view Products
 
Saturday, August 08, 2020 (09:14 UTC)
Dubai International Airport
Last Updated: 08-Aug-2020 (09:13Z)
Wind Dir/Speed: WNW at 15 kt
Temperature: 38.0°C
Rel. Humidity: 49 %
Pressure: 994.0 hPa
Visibility: 10000 m
  • METAR OMDB 080900Z 30012KT 250V320 CAVOK 38/27 Q0994 NOSIG
  • TAF OMDB 080450Z 0806/0912 22007KT 8000 NSC BECMG 0806/0808 28012KT BECMG 0816/0818 VRB02KT PROB30 0900/0904 BKN012 BECMG 0906/0908 29012KT=
D:\Input Parser\Destinations\Final\04\OMDBL06120450309485983.txt
1